Time;durP1;ratioP1;P1;durP2;ratioP2;P2;SDS_P1;SDS_P2;PMS_P1;PMS_P2;Temp;Humidity;BMP_temperature;BMP_pressure;BME280_temperature;BME280_humidity;BME280_pressure;Samples;Min_cycle;Max_cycle;Signal;HPM_P1;HPM_P2
2021/05/20 00:01:51;;;;;;;1.10;0.70;;;;;;;12.10;83.38;101126.34;5054737;28;20511;-71
2021/05/20 00:04:17;;;;;;;1.33;0.93;;;;;;;12.12;83.75;101123.31;5054465;28;21003;-71
2021/05/20 00:06:43;;;;;;;1.03;0.87;;;;;;;12.10;83.69;101126.34;5055051;28;20439;-70
2021/05/20 00:09:09;;;;;;;1.10;0.87;;;;;;;12.12;83.26;101123.31;5054743;28;20473;-69
2021/05/20 00:11:35;;;;;;;1.57;0.83;;;;;;;12.12;82.67;101120.59;5054716;28;20820;-69
2021/05/20 00:14:01;;;;;;;0.60;0.50;;;;;;;12.05;82.38;101114.78;5054671;28;20520;-69
2021/05/20 00:16:28;;;;;;;0.70;0.70;;;;;;;12.06;81.63;101124.53;5054324;28;20952;-71
2021/05/20 00:18:54;;;;;;;0.70;0.60;;;;;;;12.04;82.12;101126.72;5054458;28;20462;-70
2021/05/20 00:21:20;;;;;;;1.80;0.70;;;;;;;12.05;82.17;101117.50;5054047;28;21010;-71
2021/05/20 00:23:46;;;;;;;1.90;1.37;;;;;;;12.05;82.67;101122.91;5054464;28;20468;-69
2021/05/20 00:26:13;;;;;;;0.73;0.67;;;;;;;12.04;83.36;101127.53;5054377;28;20455;-71
2021/05/20 00:28:39;;;;;;;1.10;0.80;;;;;;;12.04;83.74;101134.84;5053740;28;20473;-71
2021/05/20 00:31:05;;;;;;;0.60;0.50;;;;;;;12.05;83.44;101141.94;5054240;28;20446;-71
2021/05/20 00:33:32;;;;;;;1.00;0.90;;;;;;;12.04;83.69;101132.97;5054274;28;20449;-70
2021/05/20 00:35:58;;;;;;;1.03;0.93;;;;;;;12.02;83.80;101129.75;5054173;28;20442;-69
2021/05/20 00:38:24;;;;;;;0.83;0.70;;;;;;;12.05;84.02;101134.59;5053645;28;20445;-69
2021/05/20 00:40:50;;;;;;;1.20;0.63;;;;;;;12.06;84.07;101136.19;5054131;28;20426;-69
2021/05/20 00:43:16;;;;;;;1.50;1.30;;;;;;;12.05;84.27;101131.06;5053645;28;20901;-71
2021/05/20 00:45:42;;;;;;;0.70;0.70;;;;;;;12.06;84.25;101136.19;5053649;28;20442;-69
2021/05/20 00:48:08;;;;;;;0.80;0.70;;;;;;;12.07;84.05;101142.41;5053915;28;20445;-69
2021/05/20 00:50:35;;;;;;;1.00;0.70;;;;;;;12.02;84.10;101131.66;5053731;28;20462;-69
2021/05/20 00:53:01;;;;;;;0.80;0.80;;;;;;;11.98;84.25;101149.63;5053875;28;20438;-71
2021/05/20 00:55:31;;;;;;;1.43;0.80;;;;;;;11.98;84.45;101139.56;5053802;28;20816;-71
2021/05/20 00:58:00;;;;;;;1.03;0.60;;;;;;;11.99;84.71;101145.81;5053429;28;20941;-70
2021/05/20 01:00:26;;;;;;;1.20;0.77;;;;;;;12.00;84.35;101158.31;5053612;28;20465;-71
2021/05/20 01:02:52;;;;;;;2.23;0.97;;;;;;;12.03;84.99;101154.97;5053571;28;20505;-70
2021/05/20 01:05:18;;;;;;;1.60;0.93;;;;;;;12.02;85.14;101154.19;5053573;28;20449;-72
2021/05/20 01:07:45;;;;;;;1.10;0.97;;;;;;;12.00;85.48;101161.03;5053643;28;20873;-70
2021/05/20 01:10:12;;;;;;;3.03;1.10;;;;;;;12.02;85.82;101166.94;5053363;28;20539;-71
2021/05/20 01:12:39;;;;;;;1.47;1.37;;;;;;;12.01;86.12;101162.63;5053506;28;20434;-69
2021/05/20 01:15:17;;;;;;;1.80;1.13;;;;;;;12.00;86.05;101156.41;5053484;28;20453;-70
2021/05/20 01:17:50;;;;;;;0.80;0.70;;;;;;;12.06;86.07;101165.25;5053479;28;20488;-71
2021/05/20 01:20:19;;;;;;;1.00;0.90;;;;;;;12.05;85.98;101161.75;5053286;28;20466;-71
2021/05/20 01:22:45;;;;;;;0.93;0.70;;;;;;;12.02;86.40;101161.50;5053295;28;20489;-70
2021/05/20 01:25:12;;;;;;;1.27;1.10;;;;;;;12.00;86.62;101163.72;5053013;28;21008;-72
2021/05/20 01:27:41;;;;;;;6.07;0.90;;;;;;;12.01;86.46;101160.72;5053267;28;20446;-70
2021/05/20 01:30:08;;;;;;;0.90;0.70;;;;;;;12.00;86.62;101163.72;5053226;28;20856;-69
2021/05/20 01:32:36;;;;;;;1.53;1.10;;;;;;;12.01;87.26;101165.34;5053345;28;20446;-69
2021/05/20 01:35:02;;;;;;;1.10;1.03;;;;;;;11.99;87.07;101153.94;5053115;28;20523;-70
2021/05/20 01:37:28;;;;;;;1.67;0.97;;;;;;;12.01;87.09;101159.91;5053211;28;20449;-71
2021/05/20 01:39:54;;;;;;;0.80;0.57;;;;;;;12.00;86.90;101152.88;5051958;28;20923;-70
2021/05/20 01:42:20;;;;;;;1.63;1.33;;;;;;;12.01;87.07;101157.19;5052726;28;20495;-69
2021/05/20 01:44:46;;;;;;;1.27;0.70;;;;;;;12.00;87.06;101166.44;5052906;28;20502;-69
2021/05/20 01:47:12;;;;;;;1.40;1.10;;;;;;;12.02;86.96;101164.22;5053083;28;20445;-71
2021/05/20 01:49:38;;;;;;;1.70;0.80;;;;;;;11.95;86.62;101155.66;5053454;28;20476;-70
2021/05/20 01:52:04;;;;;;;1.53;0.87;;;;;;;11.92;85.60;101156.25;5052842;28;20941;-70
2021/05/20 01:54:31;;;;;;;0.70;0.70;;;;;;;11.88;85.88;101161.47;5052989;28;20525;-70
2021/05/20 01:56:57;;;;;;;1.23;1.13;;;;;;;11.84;85.55;101160.44;5053002;28;20500;-70
2021/05/20 01:59:23;;;;;;;0.50;0.50;;;;;;;11.82;86.64;101163.47;5052557;28;20470;-70
2021/05/20 02:01:49;;;;;;;1.07;0.60;;;;;;;11.81;87.37;101161.78;5052827;28;20489;-70
2021/05/20 02:04:14;;;;;;;1.03;0.57;;;;;;;11.81;87.83;101167.22;5052905;28;20499;-70
2021/05/20 02:06:40;;;;;;;0.80;0.80;;;;;;;11.83;87.74;101162.34;5052904;28;20446;-69
2021/05/20 02:09:07;;;;;;;1.13;1.00;;;;;;;11.81;87.93;101166.41;5053102;28;20454;-70
2021/05/20 02:11:34;;;;;;;0.90;0.57;;;;;;;11.81;87.89;101167.22;5052855;28;20540;-71
2021/05/20 02:14:00;;;;;;;1.00;0.80;;;;;;;11.82;88.02;101163.47;5052832;28;20438;-70
2021/05/20 02:16:26;;;;;;;0.73;0.73;;;;;;;11.84;88.05;101169.38;5052259;28;20456;-71
2021/05/20 02:18:52;;;;;;;1.20;0.93;;;;;;;11.83;88.18;101167.78;5052762;28;20473;-71
2021/05/20 02:21:18;;;;;;;0.83;0.70;;;;;;;11.86;87.52;101159.06;5052665;28;20442;-70
2021/05/20 02:23:43;;;;;;;1.60;1.00;;;;;;;11.88;87.49;101169.63;5052786;28;20446;-69
2021/05/20 02:26:09;;;;;;;1.23;0.70;;;;;;;11.84;87.31;101169.38;5052766;28;20442;-70
2021/05/20 02:28:36;;;;;;;1.20;1.00;;;;;;;11.81;87.39;101161.78;5052597;28;20458;-72
2021/05/20 02:31:02;;;;;;;1.33;1.23;;;;;;;11.81;87.30;101169.13;5052723;28;20453;-71
2021/05/20 02:33:28;;;;;;;1.13;0.80;;;;;;;11.73;87.58;101162.47;5052672;28;20945;-70
2021/05/20 02:35:54;;;;;;;2.07;0.93;;;;;;;11.72;87.16;101174.41;5052651;28;20437;-70
2021/05/20 02:38:20;;;;;;;0.87;0.73;;;;;;;11.76;86.73;101172.72;5052296;28;20453;-70
2021/05/20 02:40:46;;;;;;;1.23;0.77;;;;;;;11.79;87.07;101174.88;5052826;28;20509;-71
2021/05/20 02:43:12;;;;;;;0.70;0.60;;;;;;;11.79;87.60;101180.28;5052448;28;20913;-72
2021/05/20 02:45:40;;;;;;;0.53;0.50;;;;;;;11.78;87.42;101177.88;5052271;28;20457;-70
2021/05/20 02:48:06;;;;;;;0.80;0.80;;;;;;;11.79;87.70;101180.28;5052222;28;20438;-68
2021/05/20 02:50:32;;;;;;;1.00;0.87;;;;;;;11.78;87.82;101178.69;5053316;28;20469;-69
2021/05/20 02:52:58;;;;;;;0.87;0.87;;;;;;;11.79;88.09;101180.28;5056118;28;20882;-68
2021/05/20 02:55:24;;;;;;;1.60;1.17;;;;;;;11.81;87.60;101182.72;5056041;28;20488;-69
2021/05/20 02:57:53;;;;;;;1.17;1.07;;;;;;;11.80;87.49;101181.91;5056037;28;20485;-68
2021/05/20 03:00:20;;;;;;;1.27;0.87;;;;;;;11.72;87.99;101181.75;5055880;28;20458;-68
2021/05/20 03:02:48;;;;;;;1.00;0.73;;;;;;;11.73;87.69;101184.19;5056155;28;20478;-68
2021/05/20 03:05:14;;;;;;;1.60;1.33;;;;;;;11.73;88.29;101194.22;5055821;28;20442;-70
2021/05/20 03:07:40;;;;;;;2.40;1.80;;;;;;;11.72;88.56;101192.63;5055502;28;20813;-70
2021/05/20 03:10:08;;;;;;;0.90;0.70;;;;;;;11.70;89.16;101189.41;5055705;28;20528;-69
2021/05/20 03:12:34;;;;;;;1.70;0.90;;;;;;;11.71;89.61;101193.72;5055738;28;20438;-68
2021/05/20 03:15:00;;;;;;;1.63;1.00;;;;;;;11.67;90.57;101195.41;5055682;28;20441;-69
2021/05/20 03:17:26;;;;;;;1.17;0.87;;;;;;;11.67;89.86;101198.13;5055566;28;20446;-69
2021/05/20 03:19:53;;;;;;;0.90;0.80;;;;;;;11.61;90.22;101206.34;5055559;28;20469;-69
2021/05/20 03:22:21;;;;;;;1.13;1.00;;;;;;;11.60;90.78;101206.63;5055515;28;20482;-67
2021/05/20 03:24:47;;;;;;;4.23;1.27;;;;;;;11.55;90.72;101202.09;5055411;28;20446;-69
2021/05/20 03:27:13;;;;;;;1.13;0.97;;;;;;;11.50;91.14;101206.75;5055472;28;20450;-70
2021/05/20 03:29:39;;;;;;;0.93;0.90;;;;;;;11.48;91.31;101208.97;5055357;28;20815;-70
2021/05/20 03:32:05;;;;;;;2.60;1.67;;;;;;;11.47;91.12;101207.34;5055385;28;20439;-68
2021/05/20 03:34:31;;;;;;;1.40;1.30;;;;;;;11.43;91.67;101207.13;5055371;28;20450;-70
2021/05/20 03:36:58;;;;;;;0.70;0.70;;;;;;;11.42;91.77;101210.09;5055315;28;20446;-69
2021/05/20 03:39:24;;;;;;;1.00;0.77;;;;;;;11.42;92.41;101202.81;5054915;28;20483;-70
2021/05/20 03:41:50;;;;;;;2.40;1.00;;;;;;;11.45;92.65;101204.91;5055191;28;20481;-69
2021/05/20 03:44:15;;;;;;;1.43;1.03;;;;;;;11.45;92.56;101201.41;5055368;28;20449;-70
2021/05/20 03:46:41;;;;;;;2.03;1.60;;;;;;;11.50;93.07;101210.28;5055227;28;20446;-69
2021/05/20 03:49:07;;;;;;;1.20;0.90;;;;;;;11.55;92.82;101206.69;5055023;28;20527;-68
2021/05/20 03:51:33;;;;;;;0.80;0.77;;;;;;;11.54;92.74;101213.22;5055035;28;20864;-69
2021/05/20 03:54:00;;;;;;;1.20;0.90;;;;;;;11.52;93.35;101208.09;5055013;28;20450;-68
2021/05/20 03:56:26;;;;;;;0.70;0.53;;;;;;;11.50;93.68;101210.28;5055004;28;20442;-69
2021/05/20 03:58:52;;;;;;;1.03;0.93;;;;;;;11.49;93.96;101210.56;5054905;28;20466;-67
2021/05/20 04:01:18;;;;;;;1.63;1.10;;;;;;;11.45;94.72;101217.69;5054759;28;20492;-69
2021/05/20 04:03:44;;;;;;;1.20;0.97;;;;;;;11.41;95.25;101219.34;5054017;28;20532;-69
2021/05/20 04:06:10;;;;;;;1.30;1.20;;;;;;;11.36;95.62;101214.81;5054805;28;20851;-69
2021/05/20 04:08:36;;;;;;;1.33;1.10;;;;;;;11.34;96.22;101222.44;5054668;28;20481;-68
2021/05/20 04:11:04;;;;;;;1.47;1.13;;;;;;;11.35;96.43;101219.41;5054696;28;20446;-68
2021/05/20 04:13:32;;;;;;;1.10;1.00;;;;;;;11.34;96.61;101225.94;5054689;28;20441;-69
2021/05/20 04:15:59;;;;;;;1.40;1.17;;;;;;;11.33;97.17;101228.94;5054600;28;20442;-68
2021/05/20 04:18:25;;;;;;;1.13;0.83;;;;;;;11.36;97.35;101221.03;5054553;28;20438;-70
2021/05/20 04:20:52;;;;;;;3.17;1.97;;;;;;;11.39;96.89;101224.28;5054248;28;20937;-70
2021/05/20 04:23:18;;;;;;;1.07;0.77;;;;;;;11.33;97.03;101228.94;5054428;28;20488;-70
2021/05/20 04:25:44;;;;;;;1.43;1.27;;;;;;;11.33;97.73;101234.34;5054429;28;20450;-70
2021/05/20 04:28:12;;;;;;;3.23;2.03;;;;;;;11.22;98.13;101241.00;5054435;28;20453;-70
2021/05/20 04:30:38;;;;;;;1.67;1.53;;;;;;;11.15;99.25;101245.97;5054421;28;20500;-70
2021/05/20 04:33:06;;;;;;;1.03;1.00;;;;;;;11.12;100.00;101244.66;5054358;28;20442;-69
2021/05/20 04:35:32;;;;;;;1.97;1.70;;;;;;;11.13;100.00;101248.97;5054316;28;20445;-68
2021/05/20 04:37:58;;;;;;;1.90;1.13;;;;;;;11.10;100.00;101246.84;5054149;28;20434;-69
2021/05/20 04:40:24;;;;;;;2.30;1.80;;;;;;;11.10;100.00;101249.53;5055102;28;20522;-69
2021/05/20 04:42:51;;;;;;;2.83;2.00;;;;;;;11.06;100.00;101249.31;5053790;28;20478;-71
2021/05/20 04:45:18;;;;;;;4.13;3.60;;;;;;;11.06;100.00;101253.91;5053832;28;20466;-68
2021/05/20 04:47:44;;;;;;;5.33;3.03;;;;;;;11.08;100.00;101266.09;5054121;28;20438;-70
2021/05/20 04:50:12;;;;;;;1.57;1.47;;;;;;;11.15;100.00;101251.38;5053912;28;20455;-70
2021/05/20 04:52:38;;;;;;;1.83;1.60;;;;;;;11.15;100.00;101256.81;5053946;28;20438;-69
2021/05/20 04:55:05;;;;;;;1.90;1.33;;;;;;;11.16;100.00;101266.59;5053627;28;20449;-69
2021/05/20 04:57:30;;;;;;;2.40;1.57;;;;;;;11.20;100.00;101263.00;5053925;28;20443;-70
2021/05/20 04:59:56;;;;;;;4.00;1.80;;;;;;;11.23;100.00;101262.41;5053784;28;20470;-70
2021/05/20 05:02:23;;;;;;;2.20;1.00;;;;;;;11.23;100.00;101270.53;5053669;28;20513;-69
2021/05/20 05:04:49;;;;;;;3.03;2.73;;;;;;;11.20;100.00;101270.31;5053720;28;20475;-70
2021/05/20 05:07:15;;;;;;;2.77;2.50;;;;;;;11.22;100.00;101263.50;5053635;28;20963;-70
2021/05/20 05:09:41;;;;;;;3.10;2.03;;;;;;;11.33;100.00;101265.03;5053582;28;20466;-70
2021/05/20 05:12:08;;;;;;;3.40;1.97;;;;;;;11.41;100.00;101268.97;5053627;28;20485;-69
2021/05/20 05:14:34;;;;;;;2.97;1.77;;;;;;;11.45;100.00;101271.94;5053323;28;20941;-71
2021/05/20 05:17:00;;;;;;;2.40;1.70;;;;;;;11.49;100.00;101267.53;5053215;28;20443;-71
2021/05/20 05:19:27;;;;;;;2.00;1.67;;;;;;;11.50;100.00;101269.94;5053173;28;20465;-70
2021/05/20 05:21:53;;;;;;;2.43;1.80;;;;;;;11.59;100.00;101272.84;5053342;28;20446;-70
2021/05/20 05:24:19;;;;;;;3.57;1.80;;;;;;;11.68;100.00;101270.28;5053415;28;20445;-70
2021/05/20 05:26:45;;;;;;;2.23;1.83;;;;;;;11.73;100.00;101276.47;5053317;28;20525;-70
2021/05/20 05:29:11;;;;;;;3.03;1.93;;;;;;;11.77;100.00;101271.25;5053252;28;20994;-70
2021/05/20 05:31:37;;;;;;;1.33;1.23;;;;;;;11.80;100.00;101276.09;5053624;28;20923;-70
2021/05/20 05:34:03;;;;;;;2.73;1.70;;;;;;;11.81;100.00;101275.00;5053343;28;20468;-69
2021/05/20 05:36:30;;;;;;;2.07;1.57;;;;;;;11.81;100.00;101270.38;5053283;28;20438;-69
2021/05/20 05:38:56;;;;;;;2.70;2.30;;;;;;;11.82;100.00;101277.47;5052941;28;20516;-70
2021/05/20 05:41:22;;;;;;;2.53;1.67;;;;;;;11.88;100.00;101275.47;5053110;28;20438;-70
2021/05/20 05:43:48;;;;;;;3.33;1.60;;;;;;;11.95;100.00;101278.63;5053138;28;20535;-70
2021/05/20 05:46:14;;;;;;;2.00;1.40;;;;;;;12.06;100.00;101282.81;5053235;28;20450;-70
2021/05/20 05:48:40;;;;;;;3.10;2.10;;;;;;;12.09;100.00;101276.00;5053110;28;20874;-69
2021/05/20 05:51:11;;;;;;;3.30;1.90;;;;;;;12.18;100.00;101289.72;5053069;28;20453;-70
2021/05/20 05:53:38;;;;;;;2.97;2.03;;;;;;;12.21;100.00;101279.06;5052805;28;20945;-70
2021/05/20 05:56:04;;;;;;;1.47;1.37;;;;;;;12.21;100.00;101284.50;5053031;28;20490;-71
2021/05/20 05:58:30;;;;;;;3.50;2.40;;;;;;;12.23;100.00;101282.31;5053011;28;20437;-71
2021/05/20 06:00:56;;;;;;;4.10;1.33;;;;;;;12.23;100.00;101287.75;5052607;28;20474;-71
2021/05/20 06:03:23;;;;;;;2.40;1.27;;;;;;;12.31;99.54;101284.34;5052874;28;20572;-71
2021/05/20 06:05:49;;;;;;;3.13;1.80;;;;;;;12.39;99.73;101285.56;5052931;28;20449;-70
2021/05/20 06:08:16;;;;;;;4.77;1.90;;;;;;;12.45;99.09;101291.75;5052509;28;20844;-71
2021/05/20 06:10:43;;;;;;;3.30;2.73;;;;;;;12.37;97.74;101291.31;5052933;28;20454;-71
2021/05/20 06:13:09;;;;;;;3.30;1.83;;;;;;;12.45;98.30;101294.47;5052875;28;20442;-70
2021/05/20 06:15:35;;;;;;;1.93;1.73;;;;;;;12.58;98.63;101296.44;5052844;28;20878;-70
2021/05/20 06:18:01;;;;;;;2.40;2.00;;;;;;;12.70;97.99;101299.47;5052532;28;20434;-71
2021/05/20 06:20:27;;;;;;;2.67;2.07;;;;;;;12.66;95.82;101298.50;5052486;28;20458;-69
2021/05/20 06:22:54;;;;;;;5.70;2.50;;;;;;;12.75;95.72;101293.16;5052438;28;20517;-71
2021/05/20 06:25:21;;;;;;;2.83;2.17;;;;;;;12.75;95.97;101304.03;5053223;28;20448;-72
2021/05/20 06:27:47;;;;;;;2.27;1.80;;;;;;;12.89;96.11;101307.59;5056439;28;20446;-72
2021/05/20 06:30:14;;;;;;;2.23;1.80;;;;;;;12.97;95.71;101312.38;5056618;28;20466;-72
2021/05/20 06:32:40;;;;;;;4.70;1.97;;;;;;;13.06;94.12;101302.41;5056633;28;20442;-71
2021/05/20 06:35:07;;;;;;;2.23;1.33;;;;;;;13.10;93.38;101313.47;5056567;28;20794;-68
2021/05/20 06:37:34;;;;;;;1.83;1.53;;;;;;;13.23;93.66;101303.75;5056534;28;20446;-68
2021/05/20 06:39:59;;;;;;;2.13;1.40;;;;;;;13.16;89.64;101316.91;5056128;28;20552;-68
2021/05/20 06:42:26;;;;;;;2.03;1.50;;;;;;;13.28;90.35;101315.34;5056224;28;20623;-68
2021/05/20 06:44:53;;;;;;;1.23;1.00;;;;;;;13.30;90.09;101315.84;5056308;28;20438;-68
2021/05/20 06:47:19;;;;;;;1.73;1.33;;;;;;;13.30;90.64;101318.56;5056271;28;20479;-69
2021/05/20 06:49:45;;;;;;;1.90;1.07;;;;;;;13.34;90.36;101319.59;5056252;28;20454;-69
2021/05/20 06:52:11;;;;;;;3.27;1.57;;;;;;;13.41;90.72;101326.53;5056144;28;20445;-69
2021/05/20 06:54:36;;;;;;;2.90;1.67;;;;;;;13.41;91.73;101327.34;5056138;28;20521;-69
2021/05/20 06:57:06;;;;;;;3.13;1.63;;;;;;;13.28;90.51;101328.97;5055757;28;20457;-69
2021/05/20 07:02:17;;;;;;;1.80;1.50;;;;;;;13.23;89.92;101330.94;5055711;28;20472;-69
2021/05/20 07:04:43;;;;;;;1.73;1.43;;;;;;;13.25;90.06;101328.75;5055978;28;20453;-69
2021/05/20 07:07:10;;;;;;;1.73;1.53;;;;;;;13.20;88.72;101321.47;5055916;28;20450;-69
2021/05/20 07:09:38;;;;;;;1.70;1.00;;;;;;;13.20;90.12;101328.81;5055793;28;20993;-69
2021/05/20 07:12:05;;;;;;;1.87;1.27;;;;;;;13.18;88.45;101337.25;5055855;28;20476;-68
2021/05/20 07:14:32;;;;;;;4.00;2.30;;;;;;;13.05;88.25;101333.41;5055654;28;20525;-68
2021/05/20 07:16:58;;;;;;;2.70;1.73;;;;;;;13.04;87.83;101339.16;5055459;28;20496;-69
2021/05/20 07:19:25;;;;;;;2.60;1.70;;;;;;;13.01;87.80;101331.59;5055294;28;20473;-69
2021/05/20 07:21:52;;;;;;;1.37;1.27;;;;;;;13.06;87.63;101336.97;5055597;28;20460;-68
2021/05/20 07:24:18;;;;;;;1.13;0.70;;;;;;;13.15;86.15;101332.44;5055610;28;20465;-70
2021/05/20 07:26:45;;;;;;;0.83;0.80;;;;;;;13.22;85.95;101337.47;5055656;28;20480;-67
2021/05/20 07:29:11;;;;;;;0.90;0.80;;;;;;;13.14;84.00;101333.53;5055193;28;20458;-69
2021/05/20 07:31:38;;;;;;;1.10;1.10;;;;;;;13.20;80.73;101335.06;5055301;28;20465;-69
2021/05/20 07:34:04;;;;;;;2.53;1.67;;;;;;;13.27;81.91;101330.03;5055613;28;20818;-69
2021/05/20 07:36:31;;;;;;;0.70;0.70;;;;;;;13.46;82.85;101327.25;5054587;28;20869;-69
2021/05/20 07:38:57;;;;;;;0.93;0.93;;;;;;;13.62;81.03;101328.56;5054725;28;20550;-71
2021/05/20 07:41:23;;;;;;;1.30;1.20;;;;;;;13.63;77.37;101334.81;5055240;28;20449;-66
2021/05/20 07:43:49;;;;;;;0.83;0.83;;;;;;;13.55;79.37;101332.81;5054428;28;20543;-67
2021/05/20 07:46:15;;;;;;;1.03;0.87;;;;;;;13.63;80.21;101327.47;5055088;28;20434;-68
2021/05/20 07:48:41;;;;;;;1.03;0.60;;;;;;;13.65;80.62;101329.88;5054967;28;20512;-68
2021/05/20 07:51:08;;;;;;;1.27;1.17;;;;;;;13.59;76.92;101339.22;5054750;28;20469;-68
2021/05/20 07:53:35;;;;;;;1.53;1.17;;;;;;;13.58;76.28;101327.53;5054721;28;20816;-67
2021/05/20 07:56:02;;;;;;;1.00;0.80;;;;;;;13.67;74.64;101341.25;5054572;28;20453;-69
2021/05/20 07:58:28;;;;;;;1.03;0.87;;;;;;;13.73;74.53;101340.06;5055073;28;20496;-70
2021/05/20 08:00:55;;;;;;;0.70;0.60;;;;;;;13.94;76.12;101337.69;5054046;28;20953;-65
2021/05/20 08:03:25;;;;;;;1.70;1.33;;;;;;;14.00;73.91;101335.69;5054559;28;20484;-70
2021/05/20 08:05:58;;;;;;;1.23;1.13;;;;;;;14.02;73.13;101347.06;5054623;28;20462;-68
2021/05/20 08:08:29;;;;;;;0.77;0.70;;;;;;;14.02;70.85;101347.88;5054315;28;20426;-68
2021/05/20 08:11:01;;;;;;;0.60;0.60;;;;;;;13.96;71.27;101342.84;5054841;28;20437;-72
2021/05/20 08:13:28;;;;;;;1.33;1.23;;;;;;;14.09;73.31;101345.56;5054126;28;20874;-69
2021/05/20 08:15:54;;;;;;;0.90;0.80;;;;;;;14.32;72.11;101330.06;5054347;28;20439;-69
2021/05/20 08:18:20;;;;;;;0.90;0.90;;;;;;;14.51;71.44;101340.00;5054455;28;20477;-68
2021/05/20 08:20:46;;;;;;;0.73;0.60;;;;;;;14.62;71.08;101344.91;5053699;28;20448;-69
2021/05/20 08:23:12;;;;;;;0.80;0.80;;;;;;;14.63;70.68;101357.44;5053908;28;20478;-69
2021/05/20 08:25:38;;;;;;;5.43;1.07;;;;;;;14.47;68.63;101363.50;5054415;28;20438;-69
2021/05/20 08:28:05;;;;;;;1.30;1.20;;;;;;;14.41;69.34;101356.56;5053636;28;20487;-69
2021/05/20 08:30:31;;;;;;;0.93;0.53;;;;;;;14.48;70.24;101348.78;5053357;28;20960;-70
2021/05/20 08:32:57;;;;;;;0.60;0.60;;;;;;;14.68;71.01;101352.97;5053264;28;20937;-69
2021/05/20 08:35:24;;;;;;;1.10;0.80;;;;;;;14.84;69.16;101349.56;5053608;28;20438;-67
2021/05/20 08:37:50;;;;;;;1.60;1.27;;;;;;;14.94;69.92;101361.34;5053645;28;20459;-67
2021/05/20 08:40:16;;;;;;;0.60;0.53;;;;;;;14.86;70.99;101363.69;5052966;28;20565;-68
2021/05/20 08:42:43;;;;;;;0.93;0.83;;;;;;;14.82;70.54;101368.16;5052463;28;20548;-66
2021/05/20 08:45:15;;;;;;;0.80;0.80;;;;;;;14.55;68.07;101373.72;5052064;28;20983;-64
2021/05/20 08:47:41;;;;;;;0.80;0.70;;;;;;;14.32;69.10;101362.75;5052840;28;20426;-65
2021/05/20 08:50:08;;;;;;;0.70;0.70;;;;;;;14.34;71.02;101360.53;5052315;28;20536;-65
2021/05/20 08:52:36;;;;;;;0.87;0.70;;;;;;;14.38;67.57;101368.88;5052879;28;20496;-64
2021/05/20 08:55:03;;;;;;;1.03;0.93;;;;;;;14.49;67.75;101353.16;5052320;28;20446;-66
2021/05/20 08:57:29;;;;;;;0.97;0.57;;;;;;;14.75;67.66;101359.63;5052995;28;20839;-65
2021/05/20 08:59:55;;;;;;;0.70;0.70;;;;;;;14.91;67.00;101351.03;5051999;28;20505;-65
2021/05/20 09:02:23;;;;;;;0.70;0.60;;;;;;;15.09;68.52;101358.22;5052226;28;20631;-64
2021/05/20 09:05:00;;;;;;;0.73;0.60;;;;;;;15.25;69.13;101364.88;5052207;28;20450;-65
2021/05/20 09:07:31;;;;;;;0.80;0.70;;;;;;;15.21;67.02;101376.75;5052396;28;20422;-70
2021/05/20 09:10:19;;;;;;;0.80;0.80;;;;;;;14.96;66.41;101368.06;5052789;28;20957;-65
2021/05/20 09:12:46;;;;;;;1.30;1.20;;;;;;;14.97;68.13;101371.63;5052280;28;20433;-65
2021/05/20 09:15:15;;;;;;;0.80;0.80;;;;;;;14.85;67.14;101367.53;5052170;28;20836;-66
2021/05/20 09:17:43;;;;;;;1.77;1.20;;;;;;;14.79;66.01;101362.53;5052007;28;20796;-65
2021/05/20 09:20:09;;;;;;;2.00;1.13;;;;;;;14.83;68.56;101369.78;5052030;28;20801;-66
2021/05/20 09:22:36;;;;;;;1.10;1.00;;;;;;;14.97;65.88;101371.63;5052195;28;20486;-66
2021/05/20 09:25:04;;;;;;;1.87;1.30;;;;;;;15.07;66.03;101366.72;5052103;28;20936;-67
2021/05/20 09:27:34;;;;;;;1.03;0.90;;;;;;;15.30;66.37;101370.22;5051837;28;20856;-66
2021/05/20 09:30:27;;;;;;;2.40;1.20;;;;;;;15.46;64.66;101372.56;5047350;28;20471;-65
2021/05/20 09:32:56;;;;;;;0.80;0.80;;;;;;;15.49;64.33;101361.78;5052643;28;20438;-66
2021/05/20 09:35:24;;;;;;;1.43;1.00;;;;;;;15.36;64.41;101360.78;5071873;28;20498;-66
2021/05/20 09:37:55;;;;;;;0.60;0.60;;;;;;;15.28;65.12;101368.94;5071936;28;20460;-67
2021/05/20 09:40:23;;;;;;;0.80;0.80;;;;;;;15.27;63.66;101370.03;5053708;28;545279;-66
2021/05/20 09:42:50;;;;;;;0.80;0.60;;;;;;;15.53;65.21;101368.22;5072341;28;20485;-66
2021/05/20 09:45:19;;;;;;;1.23;1.13;;;;;;;15.38;63.29;101376.84;5072497;28;20813;-66
2021/05/20 09:47:46;;;;;;;0.73;0.70;;;;;;;15.22;63.76;101376.44;5072454;28;20437;-66
2021/05/20 09:50:26;;;;;;;1.43;1.10;;;;;;;15.25;63.17;101375.00;5072452;28;20828;-66
2021/05/20 09:53:00;;;;;;;0.93;0.70;;;;;;;15.33;61.52;101375.06;5072820;28;20924;-65
2021/05/20 09:55:27;;;;;;;0.83;0.63;;;;;;;15.30;62.14;101378.41;5073057;28;20417;-65
2021/05/20 09:57:55;;;;;;;1.90;0.90;;;;;;;15.31;60.88;101363.63;5072219;28;20437;-66
2021/05/20 10:00:24;;;;;;;1.63;0.83;;;;;;;15.54;61.45;101363.59;5073001;28;20454;-67
2021/05/20 10:03:00;;;;;;;0.77;0.77;;;;;;;15.76;61.12;101371.72;5076110;28;20484;-66
2021/05/20 10:05:33;;;;;;;0.70;0.70;;;;;;;15.72;60.04;101364.50;5076456;28;20453;-65
2021/05/20 10:08:01;;;;;;;1.47;1.10;;;;;;;15.79;60.52;101376.53;5076256;28;20429;-65
2021/05/20 10:10:27;;;;;;;1.53;0.97;;;;;;;15.94;59.87;101360.81;5075812;28;20992;-67
2021/05/20 10:12:54;;;;;;;1.30;1.17;;;;;;;15.99;57.19;101371.63;5075852;28;20471;-67
2021/05/20 10:15:22;;;;;;;1.03;0.87;;;;;;;15.71;55.45;101369.13;5076148;28;20441;-67
2021/05/20 10:17:48;;;;;;;1.07;1.00;;;;;;;15.69;56.17;101374.09;5076079;28;20449;-67
2021/05/20 10:20:17;;;;;;;1.00;0.80;;;;;;;15.66;56.13;101373.94;5076540;28;20472;-68
2021/05/20 10:22:44;;;;;;;1.27;0.83;;;;;;;15.77;59.07;101373.34;5076316;28;20481;-67
2021/05/20 10:25:12;;;;;;;1.00;0.80;;;;;;;16.00;57.59;101356.84;5076431;28;20940;-67
2021/05/20 10:27:39;;;;;;;1.73;0.97;;;;;;;16.16;56.59;101363.47;5076683;28;20429;-66
2021/05/20 10:30:09;;;;;;;1.60;1.40;;;;;;;16.08;57.26;101362.31;5076506;28;20458;-67
2021/05/20 10:32:37;;;;;;;1.50;0.77;;;;;;;16.01;56.94;101370.19;5076298;28;20810;-66
2021/05/20 10:35:09;;;;;;;1.20;1.10;;;;;;;16.10;55.66;101364.72;5076475;28;20445;-67
2021/05/20 10:37:38;;;;;;;1.70;1.00;;;;;;;16.07;54.67;101355.25;5076185;28;20853;-67
2021/05/20 10:40:08;;;;;;;1.40;1.27;;;;;;;16.05;54.02;101354.75;5077403;28;20484;-67
2021/05/20 10:42:36;;;;;;;0.83;0.80;;;;;;;16.17;55.73;101354.13;5076019;28;21002;-67
2021/05/20 10:45:16;;;;;;;1.30;1.00;;;;;;;16.21;55.87;101349.66;5075952;28;20940;-68
2021/05/20 10:48:19;;;;;;;1.07;0.73;;;;;;;16.37;56.96;101342.56;5076435;28;20440;-67
2021/05/20 10:51:16;;;;;;;1.80;1.50;;;;;;;16.54;56.09;101338.22;5076311;28;20770;-67
2021/05/20 10:53:45;;;;;;;1.20;0.80;;;;;;;16.55;55.18;101362.50;5075889;28;20426;-67
2021/05/20 10:56:48;;;;;;;1.20;0.93;;;;;;;16.68;55.13;101354.47;5076150;28;20449;-67
2021/05/20 10:59:35;;;;;;;1.73;1.20;;;;;;;16.66;54.19;101352.06;5076165;28;20534;-67
2021/05/20 11:02:01;;;;;;;1.17;1.00;;;;;;;16.78;55.02;101356.91;5075866;28;20518;-67
2021/05/20 11:04:35;;;;;;;1.47;1.00;;;;;;;16.80;52.36;101352.72;5075922;28;20481;-67
2021/05/20 11:07:02;;;;;;;0.90;0.73;;;;;;;16.85;51.85;101325.16;5076111;28;20537;-67
2021/05/20 11:09:45;;;;;;;1.50;0.90;;;;;;;17.11;54.57;101338.00;5075994;28;20465;-68
2021/05/20 11:12:12;;;;;;;1.73;0.93;;;;;;;17.48;52.58;101341.88;5075591;28;20440;-67
2021/05/20 11:14:46;;;;;;;0.60;0.57;;;;;;;17.59;49.08;101342.31;5075788;28;20471;-67
2021/05/20 11:17:38;;;;;;;3.40;0.50;;;;;;;18.33;47.88;101341.72;5075814;28;20417;-67
2021/05/20 11:20:32;;;;;;;0.60;0.60;;;;;;;19.41;46.70;101335.31;5075406;28;20803;-68
2021/05/20 11:23:22;;;;;;;0.67;0.67;;;;;;;19.38;46.81;101342.28;5040083;28;20485;-67
2021/05/20 11:26:09;;;;;;;0.60;0.50;;;;;;;18.99;46.07;101340.16;5075561;28;20449;-67
2021/05/20 11:28:43;;;;;;;0.60;0.57;;;;;;;20.03;44.88;101338.88;5075496;28;20461;-67
2021/05/20 11:31:10;;;;;;;1.10;0.87;;;;;;;20.99;43.51;101332.56;5075275;28;20456;-67